Renderfarm Status:OK
Avg Time Per Frame:16.7 min/frame
Total Users Today:37
Total CPU Time Today:826.86 Hours
Total Frames Waiting:2763
Today's CPU Champion:gchang21 / 3 days 4 hr
Active Jobs
Job User Frames Renderer Total CPU Average Start End Status
12250 athoma34 41 rman 0 Hours 0 min 05/30 12:12 PM Ready
12249 jfurto20 100 rman 0 Hours 0 min 05/30 12:05 PM Ready
12248 tschan20 75 houdini 0 Hours 0 min 05/30 11:59 AM Ready
12247 mausla20 100 mayatomr 0 Hours 0 min 05/30 11:58 AM Ready
12245 ivfung20 76 houdini 0 Hours 0 min 05/30 11:54 AM Ready
12244 thonda20 100 arnold 0 Hours 0 min 05/30 11:45 AM Ready
12243 bmarti35 100 arnold 0 Hours 0 min 05/30 11:36 AM Ready
12242 yafyao20 11 mayatomr 0 Hours 0 min 05/30 11:19 AM Ready
12241 fagmal20 100 rman 0 Hours 0 min 05/30 11:03 AM Ready
12240 cohott20 100 mayatomr 0 Hours 0 min 05/30 10:42 AM Ready
12239 juboon20 100 rman 0 Hours 0 min 05/30 10:14 AM Ready
12238 naboga20 100 houdini 0 Hours 0 min 05/30 10:09 AM Ready
12237 efarme20 100 rman 0 Hours 0 min 05/30 09:44 AM Ready
12236 bramha20 100 mayatomr 0 Hours 0 min 05/30 09:18 AM Ready
12235 yichai20 19 houdini 0 Hours 0 min 05/30 09:04 AM Ready
12234 shuang23 5 mayatomr 0 Hours 0 min 05/30 08:38 AM Ready
12233 heren20 15 houdini 0 Hours 0 min 05/30 08:33 AM Ready
12232 yulsun20 100 mayatomr 0 Hours 0 min 05/30 08:26 AM Ready
12231 yanyan20 100 arnold 0 Hours 0 min 05/30 07:48 AM Ready
12230 imatta20 100 rman 0 Hours 0 min 05/30 07:27 AM Ready
12228 jodale20 85 mayatomr 0 Hours 0 min 05/30 05:16 AM Ready
12227 adeedw20 100 arnold 0 Hours 0 min 05/30 03:56 AM Ready
12225 cailow20 50 rman 0 Hours 0 min 05/30 03:55 AM Ready
12224 ajohns49 33 rman 0 Hours 0 min 05/30 03:39 AM Ready
12223 dawkim20 100 mayatomr 0 Hours 0 min 05/30 03:38 AM Ready
12222 ankemp20 100 mayatomr 0 Hours 0 min 05/30 03:29 AM Ready
12221 sranap20 100 mayatomr 0 Hours 0 min 05/30 03:05 AM Ready
12220 mmckin22 100 rman 0 Hours 0 min 05/30 02:13 AM Ready
12219 yonkoh20 61 rman 0 Hours 0 min 05/30 01:35 AM Ready
12218 cmoren20 20 mayatomr 0 Hours 0 min 05/30 01:32 AM Ready
12217 jkoonc20 65 rman 0 Hours 0 min 05/30 01:07 AM Ready
12216 hangli20 90 mayatomr 0 Hours 0 min 05/30 12:49 AM Ready
12215 qilu20 100 mayatomr 4.2 Hours 6.3 min 05/30 12:45 AM Rendering
12212 chzhao21 100 arnold 5.76 Hours 10.8 min 05/30 12:34 AM Rendering
12206 jpagan21 50 arnold 0 Hours 0 min 05/29 09:59 PM Rendering
12205 hsutar20 82 rman 0 Hours 0 min 05/29 09:59 PM Ready
12201 nperez23 94 mayatomr 2.21 Hours 66.2 min 05/29 08:18 PM Rendering
12199 atrout20 100 rman 0 Hours 0 min 05/29 06:53 PM Rendering
Completed Jobs
Job User Frames Renderer Total CPU Average Start End Speedup Status
12246 tschan20 75 houdini 0 Hours 0 min 05/30 11:58 AM 05/30 11:58 AM 0x Complete!
12229 yanyan20 100 arnold 0 Hours 0 min 05/30 07:00 AM 05/30 07:41 AM 0x Complete!
12226 adeedw20 51 arnold 0 Hours 0 min 05/30 03:55 AM 05/30 03:55 AM 0x Complete!
12214 xiaoli23 100 mayatomr 3.63 Hours 2.2 min 05/30 12:41 AM 05/30 11:57 AM 0.3x Complete!
12213 chuxie20 100 mayatomr 2.6 Hours 1.6 min 05/30 12:38 AM 05/30 11:39 AM 0.2x Complete!
12211 aburke24 100 houdini 8.71 Hours 5.2 min 05/30 12:10 AM 05/30 11:15 AM 0.8x Complete!
12210 aburke24 100 houdini 0 Hours 0 min 05/30 12:09 AM 05/30 12:09 AM 0x Complete!
12209 aburke24 100 houdini 0 Hours 0 min 05/30 12:05 AM 05/30 12:08 AM 0x Complete!
12208 jfurto20 100 rman 31.91 Hours 19.1 min 05/29 11:56 PM 05/30 11:45 AM 2.7x Complete!
12207 aberna24 100 mayatomr 0.63 Hours 0.4 min 05/29 11:38 PM 05/30 10:00 AM 0.1x Complete!
12204 cmoren20 100 mayatomr 0 Hours 0 min 05/29 08:52 PM 05/29 08:53 PM 0x Complete!
12203 chzhao21 100 arnold 0 Hours 0 min 05/29 08:41 PM 05/30 12:34 AM 0x Complete!
12202 thonda20 100 arnold 40.34 Hours 24.2 min 05/29 08:39 PM 05/30 11:44 AM 2.7x Complete!
12200 mparke25 100 mayatomr 5.94 Hours 3.6 min 05/29 07:31 PM 05/30 09:13 AM 0.4x Complete!
12198 edavid24 100 mayatomr 3.01 Hours 1.8 min 05/29 05:44 PM 05/30 07:06 AM 0.2x Complete!
12197 edavid24 100 mayatomr 0 Hours 0 min 05/29 05:42 PM 05/29 05:43 PM 0x Complete!
12196 efarme20 6 rman 2.86 Hours 28.6 min 05/29 05:26 PM 05/30 07:18 AM 0.2x Complete!
12195 mausla20 100 rman 50.99 Hours 30.6 min 05/29 05:04 PM 05/30 09:55 AM 3x Complete!
12194 yichai20 58 houdini 19.24 Hours 19.9 min 05/29 05:02 PM 05/30 08:51 AM 1.2x Complete!
12193 lipham20 100 mayatomr 0 Hours 0 min 05/29 04:59 PM 05/30 07:50 AM 0x Complete!
12192 lstemm20 100 mayatomr 0 Hours 0 min 05/29 04:52 PM 05/30 07:50 AM 0x Complete!
12191 athoma34 100 rman 46.67 Hours 28 min 05/29 04:47 PM 05/30 10:09 AM 2.7x Complete!
12190 wvonje20 40 mayatomr 4.1 Hours 6.1 min 05/29 04:47 PM 05/30 04:56 AM 0.3x Complete!
12189 zisong20 100 arnold 5.8 Hours 3.5 min 05/29 04:38 PM 05/30 10:49 AM 0.3x Complete!
12188 slunaw20 41 arnold 0 Hours 0 min 05/29 04:01 PM 05/30 05:31 AM 0x Complete!
12187 jodale20 100 mayatomr 29.8 Hours 17.9 min 05/29 03:45 PM 05/30 05:11 AM 2.2x Complete!
12186 gchang21 100 arnold 76.76 Hours 46.1 min 05/29 03:38 PM 05/30 10:13 AM 4.1x Complete!
12185 acarri22 100 houdini 19.97 Hours 12 min 05/29 03:35 PM 05/30 04:30 AM 1.5x Complete!
12184 kczern20 100 houdini 4.63 Hours 2.8 min 05/29 03:31 PM 05/30 04:08 AM 0.4x Complete!
12183 kczern20 100 houdini 0 Hours 0 min 05/29 03:28 PM 05/29 03:31 PM 0x Complete!
12182 takang20 41 mayatomr 2.07 Hours 3 min 05/29 03:12 PM 05/30 03:57 AM 0.2x Complete!
12181 heren20 52 houdini 21.1 Hours 24.3 min 05/29 02:32 PM 05/30 05:05 AM 1.5x Complete!
12180 imatta20 100 rman 47.7 Hours 28.6 min 05/29 02:10 PM 05/30 04:06 AM 3.4x Complete!
12179 anassr20 51 mayatomr 0.65 Hours 0.8 min 05/29 01:53 PM 05/30 06:17 AM 0x Complete!
12178 kfroel20 20 mayatomr 0.1 Hours 0.3 min 05/29 01:51 PM 05/30 03:30 AM 0x Complete!
12177 dawkim20 100 mayatomr 6.89 Hours 4.1 min 05/29 01:17 PM 05/30 03:34 AM 0.5x Complete!
12176 dajeka20 86 mayatomr 13.14 Hours 9.2 min 05/29 01:04 PM 05/30 03:26 AM 0.9x Complete!
12175 cbeasl23 49 mayatomr 0 Hours 0 min 05/29 12:32 PM 05/29 12:57 PM 0x Complete!
12174 radoss20 100 houdini 4.08 Hours 2.4 min 05/29 12:25 PM 05/30 02:34 AM 0.3x Complete!
12173 imatta20 100 rman 0 Hours 0 min 05/29 11:58 AM 05/29 01:13 PM 0x Complete!
12172 ajohns49 100 rman 15.17 Hours 9.1 min 05/29 11:57 AM 05/30 03:32 AM 1x Complete!
12171 huanhe20 84 mayatomr 0 Hours 0 min 05/29 11:54 AM 05/30 01:27 AM 0x Complete!
12170 bmarti35 33 arnold 26.34 Hours 47.9 min 05/29 11:44 AM 05/30 03:24 AM 1.7x Complete!
12169 johnam20 89 rman 0.19 Hours 0.1 min 05/29 11:13 AM 05/30 07:32 AM 0x Complete!
12168 ebrown30 20 mayatomr 5.71 Hours 17.1 min 05/29 11:03 AM 05/30 01:27 AM 0.4x Complete!
12167 baward20 100 mayatomr 31.28 Hours 18.8 min 05/29 11:01 AM 05/30 01:21 AM 2.2x Complete!
12166 baward20 1 mayatomr 0 Hours 0 min 05/29 11:00 AM 05/29 11:01 AM 0x Complete!
12165 qiasun21 100 houdini 23.13 Hours 13.9 min 05/29 10:17 AM 05/30 12:57 AM 1.6x Complete!
12164 ucheng20 100 houdini 69.29 Hours 41.6 min 05/29 09:55 AM 05/30 09:33 AM 2.9x Complete!
12163 cletan20 100 houdini 45.65 Hours 27.4 min 05/29 09:53 AM 05/30 07:32 AM 2.1x Complete!
Copyright 2014 Savannah College of Art and Design